Time;durP1;ratioP1;P1;durP2;ratioP2;P2;SDS_P1;SDS_P2;PMS_P1;PMS_P2;Temp;Humidity;BMP_temperature;BMP_pressure;BME280_temperature;BME280_humidity;BME280_pressure;Samples;Min_cycle;Max_cycle;Signal;HPM_P1;HPM_P2
2023/04/10 00:00:02;;;;;;;16.90;7.18;;;;;;;8.46;85.65;102050.78;5052085;28;20395;-77
2023/04/10 00:02:28;;;;;;;14.10;6.70;;;;;;;8.45;85.79;102046.44;5052039;28;20094;-77
2023/04/10 00:04:53;;;;;;;13.90;6.30;;;;;;;8.49;85.43;102060.28;5050707;28;20488;-77
2023/04/10 00:07:19;;;;;;;13.23;5.32;;;;;;;8.48;85.71;102037.31;5051739;28;20094;-77
2023/04/10 00:09:44;;;;;;;13.88;6.75;;;;;;;8.51;84.66;102031.69;5052011;28;20075;-77
2023/04/10 00:12:10;;;;;;;14.65;7.07;;;;;;;8.53;84.55;102027.06;5051902;28;20029;-77
2023/04/10 00:14:36;;;;;;;15.38;7.10;;;;;;;8.52;84.25;102020.09;5051139;28;20086;-77
2023/04/10 00:17:01;;;;;;;17.00;8.18;;;;;;;8.54;84.31;102010.09;5049735;28;20068;-77
2023/04/10 00:19:26;;;;;;;16.50;7.07;;;;;;;8.56;83.72;102011.63;5051771;28;20071;-77
2023/04/10 00:21:52;;;;;;;18.30;7.13;;;;;;;8.54;83.84;102005.66;5050584;28;20025;-76
2023/04/10 00:24:17;;;;;;;15.43;6.80;;;;;;;8.53;83.83;102009.28;5051305;28;20361;-77
2023/04/10 00:26:42;;;;;;;13.20;6.70;;;;;;;8.54;83.82;102004.78;5051589;28;20499;-77
2023/04/10 00:29:08;;;;;;;13.10;6.68;;;;;;;8.50;83.95;101993.63;5050352;28;20108;-77
2023/04/10 00:31:33;;;;;;;15.05;7.15;;;;;;;8.50;84.15;101998.13;5051416;28;20489;-77
2023/04/10 00:33:58;;;;;;;15.55;6.90;;;;;;;8.48;84.70;101990.28;5051483;28;20094;-77
2023/04/10 00:36:25;;;;;;;15.77;7.32;;;;;;;8.49;83.81;101985.84;5051051;28;20047;-77
2023/04/10 00:38:51;;;;;;;12.20;6.60;;;;;;;8.46;84.72;101986.13;5051380;28;20075;-77
2023/04/10 00:41:16;;;;;;;13.55;6.82;;;;;;;8.42;83.86;101979.47;5051530;28;20475;-77
2023/04/10 00:43:43;;;;;;;14.60;7.05;;;;;;;8.44;83.97;101983.63;5051400;28;20032;-77
2023/04/10 00:46:09;;;;;;;12.27;6.10;;;;;;;8.38;84.19;101976.22;5050299;28;20037;-77
2023/04/10 00:48:35;;;;;;;16.15;7.38;;;;;;;8.38;84.03;101976.22;5049905;28;21014;-77
2023/04/10 00:51:01;;;;;;;13.00;6.78;;;;;;;8.31;84.87;101969.88;5051015;28;20029;-77
2023/04/10 00:53:28;;;;;;;16.27;7.18;;;;;;;8.32;84.72;101968.88;5049360;28;20384;-77
2023/04/10 00:55:54;;;;;;;14.85;7.25;;;;;;;8.30;84.26;101971.69;5050959;28;20028;-77
2023/04/10 00:58:19;;;;;;;13.23;6.10;;;;;;;8.27;84.82;101969.34;5050844;28;20033;-77
2023/04/10 01:00:46;;;;;;;13.95;6.32;;;;;;;8.24;84.97;101961.66;5051076;28;20037;-77
2023/04/10 01:03:14;;;;;;;15.70;6.80;;;;;;;8.22;85.03;101966.31;5050403;28;20052;-77
2023/04/10 01:06:22;;;;;;;15.07;6.90;;;;;;;8.19;85.46;101960.47;5050880;28;20399;-77
2023/04/10 01:09:14;;;;;;;18.20;7.63;;;;;;;8.17;85.29;101962.44;5053539;28;20043;-77
2023/04/10 01:12:03;;;;;;;15.63;8.20;;;;;;;8.12;86.37;101973.53;5050573;28;20025;-77
2023/04/10 01:14:50;;;;;;;17.40;7.18;;;;;;;8.04;86.90;101969.00;5050176;28;20028;-76
2023/04/10 01:17:42;;;;;;;17.15;7.45;;;;;;;7.98;87.44;101966.09;5050063;28;20126;-76
2023/04/10 01:20:28;;;;;;;16.67;7.50;;;;;;;7.95;86.89;101971.72;5045761;28;20044;-77
2023/04/10 01:23:15;;;;;;;15.45;7.90;;;;;;;7.91;87.21;101960.53;5050613;28;20094;-76
2023/04/10 01:25:52;;;;;;;16.67;8.70;;;;;;;7.88;87.57;101959.03;5049871;28;20036;-76
2023/04/10 01:28:18;;;;;;;17.25;7.55;;;;;;;7.87;87.72;101957.38;5048138;28;20530;-76
2023/04/10 01:30:46;;;;;;;14.40;7.32;;;;;;;7.83;88.13;101948.06;5050398;28;20032;-76
2023/04/10 01:33:16;;;;;;;16.70;7.25;;;;;;;7.83;87.39;101950.72;5050491;28;20033;-76
2023/04/10 01:35:45;;;;;;;15.13;7.85;;;;;;;7.83;87.89;101953.38;5049139;28;20032;-76
2023/04/10 01:38:12;;;;;;;15.15;6.93;;;;;;;7.85;87.47;101959.34;5052313;28;20119;-76
2023/04/10 01:40:38;;;;;;;14.52;7.63;;;;;;;7.85;86.75;101950.53;5054087;28;20037;-76
2023/04/10 01:43:09;;;;;;;17.00;7.75;;;;;;;7.82;87.51;101945.53;5054420;28;20083;-76
2023/04/10 01:45:35;;;;;;;16.80;8.18;;;;;;;7.84;86.59;101944.41;5054503;28;20021;-76
2023/04/10 01:48:01;;;;;;;16.35;6.88;;;;;;;7.86;87.16;101949.56;5054228;28;20071;-76
2023/04/10 01:50:28;;;;;;;15.40;6.75;;;;;;;7.80;87.10;101942.19;5054267;28;20432;-76
2023/04/10 01:52:55;;;;;;;16.02;7.78;;;;;;;7.78;87.41;101942.34;5053035;28;20091;-76
2023/04/10 01:55:21;;;;;;;14.88;7.72;;;;;;;7.78;87.34;101942.34;5036338;28;20548;-76
2023/04/10 01:57:47;;;;;;;17.30;8.55;;;;;;;7.75;87.50;101931.19;5054247;28;20120;-76
2023/04/10 02:00:15;;;;;;;13.38;6.70;;;;;;;7.71;87.84;101924.53;5052783;28;20036;-76
2023/04/10 02:02:41;;;;;;;14.40;8.05;;;;;;;7.66;87.85;101920.47;5053128;28;20041;-76
2023/04/10 02:05:09;;;;;;;15.73;7.53;;;;;;;7.69;88.04;101922.84;5054039;28;20024;-76
2023/04/10 02:08:03;;;;;;;14.07;7.40;;;;;;;7.64;88.25;101922.44;5054033;28;20480;-76
2023/04/10 02:10:36;;;;;;;14.68;7.25;;;;;;;7.62;88.53;101910.31;5053322;28;20021;-76
2023/04/10 02:13:06;;;;;;;17.00;8.65;;;;;;;7.58;88.52;101907.13;5053953;28;20033;-76
2023/04/10 02:15:33;;;;;;;15.77;7.40;;;;;;;7.58;88.35;101908.97;5051948;28;20025;-77
2023/04/10 02:18:03;;;;;;;14.20;7.30;;;;;;;7.57;88.61;101901.97;5053785;28;20029;-76
2023/04/10 02:20:30;;;;;;;14.45;7.35;;;;;;;7.56;88.47;101905.63;5053560;28;20476;-76
2023/04/10 02:23:02;;;;;;;14.68;7.07;;;;;;;7.50;88.80;101904.41;5053362;28;20028;-76
2023/04/10 02:25:30;;;;;;;16.58;7.20;;;;;;;7.45;89.23;101899.53;5052183;28;20128;-76
2023/04/10 02:27:56;;;;;;;16.50;7.63;;;;;;;7.48;88.72;101903.72;5053203;28;20029;-76
2023/04/10 02:30:21;;;;;;;14.20;6.90;;;;;;;7.45;89.18;101893.41;5053790;28;20464;-76
2023/04/10 02:32:47;;;;;;;16.75;6.72;;;;;;;7.42;89.07;101905.16;5053649;28;20029;-76
2023/04/10 02:35:12;;;;;;;14.85;8.13;;;;;;;7.40;89.54;101899.16;5053734;28;20036;-76
2023/04/10 02:37:38;;;;;;;15.90;7.05;;;;;;;7.38;89.40;101901.13;5053351;28;20032;-76
2023/04/10 02:40:04;;;;;;;16.63;6.75;;;;;;;7.37;89.45;101898.63;5053343;28;20041;-76
2023/04/10 02:42:29;;;;;;;14.43;7.90;;;;;;;7.33;89.63;101884.81;5053556;28;20068;-76
2023/04/10 02:44:55;;;;;;;15.70;7.47;;;;;;;7.35;89.59;101892.63;5035507;28;20029;-77
2023/04/10 02:47:20;;;;;;;16.17;6.57;;;;;;;7.31;89.47;101892.09;5053430;28;20083;-76
2023/04/10 02:49:47;;;;;;;16.00;8.32;;;;;;;7.29;89.30;101887.94;5053349;28;20048;-76
2023/04/10 02:52:12;;;;;;;15.88;7.65;;;;;;;7.31;89.48;101899.19;5053181;28;20056;-76
2023/04/10 02:54:39;;;;;;;16.35;8.55;;;;;;;7.30;89.90;101893.06;5052811;28;20059;-76
2023/04/10 02:57:04;;;;;;;17.95;7.65;;;;;;;7.29;89.49;101893.22;5053276;28;20029;-76
2023/04/10 02:59:29;;;;;;;17.50;7.88;;;;;;;7.27;89.37;101882.75;5053207;28;20120;-76
2023/04/10 03:01:55;;;;;;;14.57;7.45;;;;;;;7.27;89.17;101885.41;5053032;28;20563;-76
2023/04/10 03:04:20;;;;;;;16.33;7.90;;;;;;;7.25;89.63;101880.25;5051732;28;20059;-76
2023/04/10 03:06:45;;;;;;;17.25;8.30;;;;;;;7.24;88.81;101881.25;5053097;28;20117;-76
2023/04/10 03:09:11;;;;;;;15.15;7.15;;;;;;;7.24;88.92;101883.88;5052840;28;20021;-76
2023/04/10 03:11:36;;;;;;;15.70;7.47;;;;;;;7.24;88.74;101891.03;5052846;28;20063;-76
2023/04/10 03:14:02;;;;;;;19.70;9.55;;;;;;;7.19;88.91;101883.50;5052992;28;20051;-76
2023/04/10 03:16:27;;;;;;;17.33;7.88;;;;;;;7.20;89.08;101890.50;5052247;28;20029;-76
2023/04/10 03:18:53;;;;;;;16.20;6.93;;;;;;;7.20;88.32;101898.47;5052823;28;20032;-77
2023/04/10 03:21:18;;;;;;;14.23;6.35;;;;;;;7.17;88.97;101901.38;5052836;28;20119;-76
2023/04/10 03:23:44;;;;;;;15.55;6.88;;;;;;;7.18;87.98;101905.72;5051490;28;20427;-76
2023/04/10 03:26:09;;;;;;;13.80;6.22;;;;;;;7.16;88.28;101899.72;5052401;28;20132;-76
2023/04/10 03:28:35;;;;;;;15.75;7.18;;;;;;;7.14;87.86;101884.94;5052490;28;20029;-76
2023/04/10 03:31:01;;;;;;;13.55;6.45;;;;;;;7.10;87.72;101876.44;5052513;28;20060;-76
2023/04/10 03:33:27;;;;;;;13.30;6.53;;;;;;;7.17;88.06;101893.41;5052748;28;20075;-77
2023/04/10 03:35:52;;;;;;;12.73;6.70;;;;;;;7.16;87.41;101888.28;5052509;28;20029;-76
2023/04/10 03:38:17;;;;;;;15.23;6.43;;;;;;;7.14;87.75;101883.13;5052611;28;20075;-76
2023/04/10 03:40:43;;;;;;;13.50;6.57;;;;;;;7.08;87.80;101878.41;5052743;28;20044;-76
2023/04/10 03:43:08;;;;;;;15.38;7.28;;;;;;;7.10;87.55;101876.44;5051629;28;20083;-76
2023/04/10 03:45:34;;;;;;;13.80;6.72;;;;;;;7.09;87.93;101876.59;5050847;28;20029;-77
2023/04/10 03:47:59;;;;;;;15.02;6.93;;;;;;;7.03;88.21;101870.88;5052297;28;20069;-76
2023/04/10 03:50:24;;;;;;;18.85;8.05;;;;;;;6.99;88.24;101860.72;5052327;28;20430;-76
2023/04/10 03:52:50;;;;;;;17.27;6.85;;;;;;;6.96;87.99;101869.81;5051197;28;20033;-76
2023/04/10 03:55:19;;;;;;;14.45;6.90;;;;;;;6.93;88.39;101867.44;5050935;28;20495;-76
2023/04/10 03:57:45;;;;;;;16.42;6.55;;;;;;;6.89;88.80;101863.44;5052177;28;20504;-77
2023/04/10 04:00:12;;;;;;;14.85;6.30;;;;;;;6.84;89.36;101860.41;5051544;28;20025;-76
2023/04/10 04:02:37;;;;;;;16.73;7.70;;;;;;;6.78;89.55;101871.56;5051705;28;20033;-77
2023/04/10 04:05:03;;;;;;;13.80;6.68;;;;;;;6.70;90.55;101855.56;5050506;28;20049;-76
2023/04/10 04:07:28;;;;;;;17.55;7.68;;;;;;;6.68;90.56;101866.31;5051612;28;20045;-77
2023/04/10 04:09:54;;;;;;;15.50;7.07;;;;;;;6.63;91.11;101852.69;5050659;28;20101;-76
2023/04/10 04:12:19;;;;;;;13.77;7.32;;;;;;;6.56;91.89;101855.06;5050583;28;20061;-76
2023/04/10 04:14:45;;;;;;;17.15;7.90;;;;;;;6.51;92.48;101849.34;5051886;28;20044;-76
2023/04/10 04:17:10;;;;;;;15.20;7.30;;;;;;;6.44;93.09;101852.72;5052331;28;20029;-76
2023/04/10 04:19:36;;;;;;;17.45;7.72;;;;;;;6.35;93.77;101846.50;5051798;28;20059;-77
2023/04/10 04:22:01;;;;;;;15.43;6.43;;;;;;;6.31;94.47;101843.31;5051598;28;20025;-76
2023/04/10 04:24:26;;;;;;;15.55;6.95;;;;;;;6.24;94.95;101846.69;5049850;28;20025;-76
2023/04/10 04:26:52;;;;;;;15.40;6.68;;;;;;;6.19;95.38;101841.81;5051471;28;20064;-76
2023/04/10 04:29:17;;;;;;;14.25;7.43;;;;;;;6.13;94.87;101837.91;5051248;28;20059;-77
2023/04/10 04:31:42;;;;;;;17.00;7.90;;;;;;;6.14;95.07;101836.09;5051406;28;20044;-77
2023/04/10 04:34:08;;;;;;;19.23;6.95;;;;;;;6.11;95.17;101834.56;5051604;28;20395;-76
2023/04/10 04:36:33;;;;;;;15.85;7.70;;;;;;;6.06;95.74;101822.75;5049973;28;20036;-76
2023/04/10 04:38:58;;;;;;;21.80;7.53;;;;;;;6.09;95.79;101828.56;5049933;28;20055;-76
2023/04/10 04:41:24;;;;;;;17.92;7.20;;;;;;;6.04;96.16;101828.16;5051231;28;20029;-76
2023/04/10 04:43:52;;;;;;;15.02;6.53;;;;;;;6.05;95.35;101829.00;5051345;28;20024;-76
2023/04/10 04:46:17;;;;;;;17.42;7.18;;;;;;;6.08;95.85;101841.97;5050901;28;20040;-76
2023/04/10 04:48:43;;;;;;;17.23;6.55;;;;;;;6.04;96.11;101832.63;5050926;28;20041;-77
2023/04/10 04:51:08;;;;;;;15.07;7.22;;;;;;;6.11;95.45;101836.38;5051188;28;20025;-76
2023/04/10 04:53:33;;;;;;;18.92;8.23;;;;;;;6.10;96.15;101830.25;5050880;28;20510;-76
2023/04/10 04:55:59;;;;;;;16.30;8.07;;;;;;;6.08;96.20;101826.09;5049594;28;20029;-76
2023/04/10 04:58:24;;;;;;;14.77;8.25;;;;;;;6.09;95.84;101827.75;5050779;28;20112;-76
2023/04/10 05:00:53;;;;;;;15.65;7.15;;;;;;;6.09;96.06;101828.56;5050705;28;20044;-76
2023/04/10 05:03:19;;;;;;;20.95;8.57;;;;;;;6.07;96.55;101824.41;5050845;28;20447;-76
2023/04/10 05:05:44;;;;;;;13.27;6.75;;;;;;;6.05;96.49;101816.63;5050349;28;20029;-76
2023/04/10 05:08:10;;;;;;;16.75;7.18;;;;;;;6.09;96.60;101819.81;5050673;28;20068;-76
2023/04/10 05:10:35;;;;;;;16.67;7.30;;;;;;;6.09;95.97;101807.38;5050605;28;20392;-77
2023/04/10 05:13:01;;;;;;;17.10;7.13;;;;;;;6.09;95.51;101802.09;5050765;28;20032;-76
2023/04/10 05:15:27;;;;;;;16.88;8.63;;;;;;;6.19;94.98;101810.00;5050579;28;20082;-76
2023/04/10 05:17:52;;;;;;;17.60;7.22;;;;;;;6.24;94.95;101809.59;5050334;28;20057;-77
2023/04/10 05:20:18;;;;;;;14.57;6.95;;;;;;;6.26;94.36;101808.47;5050760;28;20119;-76
2023/04/10 05:22:44;;;;;;;13.35;6.10;;;;;;;6.27;94.11;101807.47;5049095;28;20025;-77
2023/04/10 05:25:09;;;;;;;12.82;6.28;;;;;;;6.36;94.43;101808.41;5050446;28;20032;-76
2023/04/10 05:27:35;;;;;;;16.50;8.00;;;;;;;6.41;93.45;101802.69;5050416;28;20048;-76
2023/04/10 05:30:01;;;;;;;18.38;8.43;;;;;;;6.45;93.59;101798.78;5050584;28;20533;-76
2023/04/10 05:32:27;;;;;;;13.85;7.20;;;;;;;6.55;92.69;101796.91;5050571;28;20033;-77
2023/04/10 05:34:52;;;;;;;17.15;7.20;;;;;;;6.62;92.61;101791.84;5050663;28;20048;-76
2023/04/10 05:37:17;;;;;;;15.82;7.63;;;;;;;6.70;92.41;101794.59;5050293;28;20057;-76
2023/04/10 05:39:43;;;;;;;15.82;7.13;;;;;;;6.75;91.67;101794.97;5050496;28;20032;-76
2023/04/10 05:42:08;;;;;;;14.68;7.22;;;;;;;6.86;92.23;101799.25;5050252;28;20411;-76
2023/04/10 05:44:33;;;;;;;14.98;6.85;;;;;;;6.96;91.22;101806.16;5050215;28;20028;-77
2023/04/10 05:46:59;;;;;;;16.55;7.55;;;;;;;7.07;89.95;101804.28;5050261;28;20036;-76
2023/04/10 05:49:24;;;;;;;14.40;7.57;;;;;;;7.18;89.51;101796.94;5050304;28;20025;-76
2023/04/10 05:51:50;;;;;;;16.88;6.50;;;;;;;7.28;88.54;101796.84;5050052;28;20035;-77
2023/04/10 05:54:16;;;;;;;18.08;7.55;;;;;;;7.35;88.24;101795.25;5050329;28;20033;-77
2023/04/10 05:56:41;;;;;;;15.90;7.35;;;;;;;7.49;87.31;101790.41;5050313;28;20024;-77
2023/04/10 05:59:07;;;;;;;13.65;6.63;;;;;;;7.61;87.28;101797.16;5049275;28;20075;-77
2023/04/10 06:01:32;;;;;;;14.43;6.65;;;;;;;7.71;86.10;101802.38;5050018;28;20060;-77
2023/04/10 06:03:57;;;;;;;16.55;6.82;;;;;;;7.74;86.19;101794.09;5049696;28;20147;-76
2023/04/10 06:06:24;;;;;;;13.52;6.47;;;;;;;7.85;85.28;101796.50;5048428;28;20124;-77
2023/04/10 06:08:50;;;;;;;12.95;7.45;;;;;;;7.90;83.65;101796.88;5049832;28;20037;-77
2023/04/10 06:11:16;;;;;;;14.32;7.13;;;;;;;7.96;84.47;101792.75;5049900;28;20082;-77
2023/04/10 06:13:41;;;;;;;16.80;8.02;;;;;;;8.02;83.22;101792.97;5049778;28;20032;-77
2023/04/10 06:16:07;;;;;;;15.80;8.00;;;;;;;8.05;83.07;101791.81;5050020;28;20064;-76
2023/04/10 06:18:32;;;;;;;15.23;6.57;;;;;;;8.13;82.89;101791.88;5048688;28;20506;-77
2023/04/10 06:21:00;;;;;;;15.38;6.97;;;;;;;8.18;83.35;101794.06;5049958;28;20037;-76
2023/04/10 06:23:27;;;;;;;15.43;8.00;;;;;;;8.20;83.17;101776.97;5051669;28;20060;-76
2023/04/10 06:25:53;;;;;;;17.80;9.07;;;;;;;8.32;82.69;101788.97;5052594;28;20128;-76
2023/04/10 06:28:18;;;;;;;15.75;7.57;;;;;;;8.40;82.04;101784.72;5053536;28;20028;-77
2023/04/10 06:30:44;;;;;;;16.52;7.93;;;;;;;8.43;81.16;101779.09;5053547;28;20025;-77
2023/04/10 06:33:09;;;;;;;17.08;8.63;;;;;;;8.49;82.78;101776.63;5052159;28;20419;-77
2023/04/10 06:35:36;;;;;;;16.40;7.70;;;;;;;8.56;81.50;101771.50;5053373;28;20033;-77
2023/04/10 06:38:02;;;;;;;16.05;7.60;;;;;;;8.60;81.44;101764.03;5053327;28;20021;-77
2023/04/10 06:40:28;;;;;;;15.23;7.38;;;;;;;8.69;81.77;101768.38;5053231;28;20083;-76
2023/04/10 06:42:54;;;;;;;14.93;6.95;;;;;;;8.68;80.56;101758.75;5051869;28;20388;-77
2023/04/10 06:45:20;;;;;;;15.48;6.82;;;;;;;8.77;80.90;101765.75;5053308;28;20037;-77
2023/04/10 06:47:45;;;;;;;14.02;6.97;;;;;;;8.75;81.54;101760.59;5052934;28;20036;-77
2023/04/10 06:50:10;;;;;;;15.27;7.32;;;;;;;8.83;80.71;101761.59;5053126;28;20183;-77
2023/04/10 06:52:36;;;;;;;16.65;6.47;;;;;;;8.91;82.01;101756.31;5053223;28;20044;-77
2023/04/10 06:55:01;;;;;;;14.13;6.45;;;;;;;8.93;81.56;101747.19;5052224;28;20115;-77
2023/04/10 06:57:27;;;;;;;14.93;7.45;;;;;;;9.00;81.30;101742.00;5053061;28;20380;-77
2023/04/10 06:59:53;;;;;;;14.02;6.75;;;;;;;9.01;79.93;101725.03;5051717;28;20416;-77
2023/04/10 07:02:18;;;;;;;13.15;7.18;;;;;;;9.16;80.01;101738.53;5052683;28;20380;-77
2023/04/10 07:04:44;;;;;;;16.70;7.72;;;;;;;9.23;79.76;101725.41;5052755;28;20062;-78
2023/04/10 07:07:12;;;;;;;14.00;6.57;;;;;;;9.28;79.97;101718.59;5052524;28;20180;-77
2023/04/10 07:09:38;;;;;;;17.35;7.45;;;;;;;9.37;79.84;101719.41;5052273;28;20036;-78
2023/04/10 07:12:04;;;;;;;15.05;7.10;;;;;;;9.44;78.84;101715.09;5052545;28;20029;-80
2023/04/10 07:14:32;;;;;;;13.60;6.32;;;;;;;9.48;78.01;101719.06;5051621;28;20036;-79
2023/04/10 07:16:57;;;;;;;12.65;6.38;;;;;;;9.52;78.51;101720.41;5052556;28;20021;-78
2023/04/10 07:19:23;;;;;;;15.27;7.28;;;;;;;9.58;76.65;101710.91;5051032;28;20032;-78
2023/04/10 07:21:49;;;;;;;13.52;6.57;;;;;;;9.59;77.23;101696.59;5052411;28;20120;-79
2023/04/10 07:24:16;;;;;;;15.13;6.97;;;;;;;9.68;76.84;101700.91;5052475;28;20060;-79
2023/04/10 07:26:41;;;;;;;14.82;6.53;;;;;;;9.76;76.47;101700.06;5052322;28;20571;-79
2023/04/10 07:29:08;;;;;;;15.18;7.15;;;;;;;9.84;75.91;101689.38;5051024;28;20116;-78
2023/04/10 07:31:33;;;;;;;14.30;7.13;;;;;;;9.90;75.33;101688.66;5052255;28;20055;-79
2023/04/10 07:33:59;;;;;;;14.00;6.22;;;;;;;10.08;76.37;101673.28;5050654;28;20064;-79
2023/04/10 07:36:25;;;;;;;14.70;7.68;;;;;;;10.14;74.50;101665.59;5051453;28;20033;-79
2023/04/10 07:38:51;;;;;;;12.52;6.88;;;;;;;10.30;74.03;101670.91;5050792;28;20040;-79
2023/04/10 07:41:16;;;;;;;12.27;6.53;;;;;;;10.42;74.86;101682.81;5051763;28;20383;-78
2023/04/10 07:43:42;;;;;;;15.05;7.32;;;;;;;10.56;73.04;101669.75;5042916;28;20510;-78
2023/04/10 07:46:07;;;;;;;15.23;7.00;;;;;;;10.59;73.03;101662.22;5051731;28;20136;-75
2023/04/10 07:48:32;;;;;;;14.45;6.30;;;;;;;10.70;73.21;101659.16;5051394;28;20044;-78
2023/04/10 07:50:58;;;;;;;14.63;6.07;;;;;;;10.78;70.79;101660.09;5049532;28;20133;-78
2023/04/10 07:53:23;;;;;;;13.02;6.88;;;;;;;10.85;70.59;101635.19;5051610;28;20090;-80
2023/04/10 07:55:49;;;;;;;11.55;6.68;;;;;;;11.09;71.26;101644.00;5051969;28;20021;-79
2023/04/10 07:58:15;;;;;;;15.05;6.63;;;;;;;11.33;70.97;101650.97;5051877;28;20423;-79
2023/04/10 08:00:40;;;;;;;11.25;6.00;;;;;;;11.57;68.12;101636.50;5051706;28;20031;-79
2023/04/10 08:03:07;;;;;;;14.05;7.00;;;;;;;11.74;66.21;101645.19;5050992;28;20056;-80
2023/04/10 08:05:33;;;;;;;13.55;5.80;;;;;;;12.09;69.84;101627.56;5050254;28;20053;-80
2023/04/10 08:07:58;;;;;;;13.77;6.88;;;;;;;12.49;64.04;101617.31;5050452;28;20045;-80
2023/04/10 08:10:24;;;;;;;12.80;6.13;;;;;;;12.80;63.42;101625.00;5052164;28;20029;-79
2023/04/10 08:12:49;;;;;;;14.00;7.10;;;;;;;13.67;64.49;101623.81;5051544;28;20476;-79
2023/04/10 08:15:16;;;;;;;13.98;6.47;;;;;;;14.62;61.99;101622.13;5034665;28;20055;-81
2023/04/10 08:17:42;;;;;;;23.63;6.43;;;;;;;15.33;57.07;101610.72;5037129;28;20029;-78
2023/04/10 08:20:08;;;;;;;11.70;6.03;;;;;;;15.27;54.42;101618.78;5036048;28;20064;-79
2023/04/10 08:22:34;;;;;;;12.82;6.43;;;;;;;15.08;55.86;101605.16;5037304;28;20056;-77
2023/04/10 08:24:59;;;;;;;10.82;6.28;;;;;;;14.95;55.57;101605.19;5034916;28;20562;-74
2023/04/10 08:27:25;;;;;;;10.00;5.43;;;;;;;14.71;57.22;101609.31;5035948;28;20049;-76
2023/04/10 08:29:50;;;;;;;12.50;5.78;;;;;;;14.40;57.80;101607.16;5035240;28;20120;-76
2023/04/10 08:32:15;;;;;;;12.80;6.30;;;;;;;14.16;59.14;101614.75;5036960;28;20111;-76
2023/04/10 08:34:41;;;;;;;13.18;6.65;;;;;;;14.06;58.61;101618.84;5036264;28;20121;-76
2023/04/10 08:37:08;;;;;;;12.10;6.38;;;;;;;13.90;59.82;101611.97;5035655;28;20435;-76
2023/04/10 08:39:37;;;;;;;11.18;6.43;;;;;;;13.70;60.63;101622.59;5036661;28;20075;-76
2023/04/10 08:42:05;;;;;;;11.27;5.93;;;;;;;13.63;61.99;101611.84;5035139;28;20021;-76
2023/04/10 08:44:30;;;;;;;11.98;6.38;;;;;;;13.56;60.28;101616.34;5034499;28;20124;-76
2023/04/10 08:47:00;;;;;;;15.88;7.10;;;;;;;13.59;61.51;101607.88;5036556;28;20119;-76
2023/04/10 08:49:39;;;;;;;11.10;6.53;;;;;;;13.72;62.73;101604.44;5032147;28;20072;-75
2023/04/10 08:52:07;;;;;;;11.05;5.93;;;;;;;13.79;60.15;101603.47;5035806;28;20503;-77
2023/04/10 08:54:36;;;;;;;11.95;6.05;;;;;;;13.79;60.01;101594.59;5035499;28;20047;-76
2023/04/10 08:57:05;;;;;;;11.95;6.10;;;;;;;13.72;60.22;101597.22;5035702;28;20029;-76
2023/04/10 08:59:31;;;;;;;12.40;5.55;;;;;;;13.57;60.57;101597.38;5035807;28;20048;-76
2023/04/10 09:01:57;;;;;;;11.32;5.97;;;;;;;13.51;61.11;101602.69;5034212;28;20032;-76
2023/04/10 09:04:24;;;;;;;11.90;6.15;;;;;;;13.31;61.28;101591.88;5033474;28;20111;-77
2023/04/10 09:06:50;;;;;;;15.30;6.65;;;;;;;13.34;63.23;101588.78;5034904;28;20061;-76
2023/04/10 09:09:16;;;;;;;13.40;7.50;;;;;;;13.48;61.64;101595.06;5035810;28;20044;-76
2023/04/10 09:11:54;;;;;;;12.38;6.65;;;;;;;13.46;60.97;101591.72;5034853;28;20029;-77
2023/04/10 09:14:30;;;;;;;11.10;6.15;;;;;;;13.51;64.36;101587.44;5035863;28;20039;-76
2023/04/10 09:17:17;;;;;;;9.73;5.50;;;;;;;13.64;63.73;101578.63;5034643;28;20029;-77
2023/04/10 09:19:51;;;;;;;12.32;6.85;;;;;;;13.78;65.05;101585.72;5035866;28;20089;-76
2023/04/10 09:22:17;;;;;;;10.98;5.70;;;;;;;13.81;62.74;101571.09;5034343;28;20025;-76
2023/04/10 09:24:46;;;;;;;10.85;5.20;;;;;;;13.84;62.11;101577.91;5034801;28;20029;-77
2023/04/10 09:27:30;;;;;;;13.02;6.32;;;;;;;13.77;63.37;101564.47;5035620;28;20037;-76
2023/04/10 09:29:55;;;;;;;15.50;7.40;;;;;;;13.77;64.50;101567.97;5034611;28;20041;-76
2023/04/10 09:32:37;;;;;;;11.70;6.30;;;;;;;13.70;61.59;101558.25;5035608;28;20294;-77
2023/04/10 09:35:03;;;;;;;13.40;6.35;;;;;;;13.50;61.70;101553.63;5034267;28;20032;-77
2023/04/10 09:37:33;;;;;;;13.18;6.18;;;;;;;13.39;64.00;101543.47;5035298;28;20068;-76
2023/04/10 09:39:58;;;;;;;11.88;5.97;;;;;;;13.49;64.88;101548.47;5035135;28;20029;-76
2023/04/10 09:42:36;;;;;;;11.93;6.30;;;;;;;13.46;64.72;101546.19;5034707;28;20037;-77
2023/04/10 09:45:02;;;;;;;13.95;6.57;;;;;;;13.45;62.95;101542.69;5033501;28;20033;-77
2023/04/10 09:47:27;;;;;;;10.15;5.45;;;;;;;13.40;65.58;101530.91;5034413;28;20054;-77
2023/04/10 09:49:54;;;;;;;12.65;5.63;;;;;;;13.49;64.57;101519.84;5035339;28;20587;-77
2023/04/10 09:52:26;;;;;;;11.63;6.25;;;;;;;13.56;65.31;101519.84;5034955;28;20366;-77
2023/04/10 09:54:56;;;;;;;13.18;6.85;;;;;;;13.66;64.14;101514.94;5034227;28;20029;-77
2023/04/10 09:57:23;;;;;;;11.68;5.38;;;;;;;13.69;65.36;101503.81;5035227;28;20448;-77
2023/04/10 09:59:54;;;;;;;9.65;5.35;;;;;;;13.79;64.76;101496.22;5038923;28;20028;-76
2023/04/10 10:02:22;;;;;;;11.80;6.13;;;;;;;13.90;65.41;101500.16;5038746;28;20017;-76
2023/04/10 10:04:48;;;;;;;13.75;5.90;;;;;;;13.99;64.68;101498.94;5037742;28;20049;-79
2023/04/10 10:07:18;;;;;;;11.25;6.13;;;;;;;14.07;64.69;101505.13;5039259;28;20036;-80
2023/04/10 10:09:45;;;;;;;12.25;6.15;;;;;;;14.09;64.59;101490.50;5039926;28;21413;-81
2023/04/10 10:12:14;;;;;;;14.65;6.68;;;;;;;14.14;63.73;101501.44;5039856;28;20028;-81
2023/04/10 10:15:15;;;;;;;13.60;6.53;;;;;;;14.20;64.52;101494.41;5038922;28;20029;-83
2023/04/10 10:18:06;;;;;;;12.30;6.70;;;;;;;14.35;64.73;101499.59;5037115;28;20498;-81
2023/04/10 10:20:35;;;;;;;13.30;6.88;;;;;;;14.35;63.56;101489.69;5038799;28;20108;-82
2023/04/10 10:23:06;;;;;;;12.23;6.07;;;;;;;14.39;65.04;101477.53;5039909;28;20099;-83
2023/04/10 10:25:33;;;;;;;11.80;5.70;;;;;;;14.47;65.52;101482.69;5038581;28;20029;-81
2023/04/10 10:28:03;;;;;;;12.13;7.28;;;;;;;14.55;65.65;101462.88;5038258;28;20035;-82
2023/04/10 10:30:32;;;;;;;10.63;6.05;;;;;;;14.60;63.10;101457.72;5038877;28;20032;-82
2023/04/10 10:32:59;;;;;;;12.85;6.72;;;;;;;14.70;65.06;101451.94;5039100;28;20079;-75
2023/04/10 10:35:29;;;;;;;10.73;5.70;;;;;;;14.95;64.93;101449.38;5037369;28;20020;-75
2023/04/10 10:37:57;;;;;;;10.45;5.47;;;;;;;15.09;61.15;101437.56;5038938;28;20446;-77
2023/04/10 10:40:33;;;;;;;10.32;5.07;;;;;;;15.26;61.73;101437.91;5038606;28;20021;-80
2023/04/10 10:43:17;;;;;;;10.77;5.72;;;;;;;15.53;63.82;101438.59;5037630;28;20132;-75
2023/04/10 10:46:02;;;;;;;9.18;5.60;;;;;;;15.81;62.91;101436.63;5037212;28;20038;-75
2023/04/10 10:48:28;;;;;;;8.63;4.72;;;;;;;15.87;59.58;101431.19;5036413;28;20045;-78
2023/04/10 10:50:57;;;;;;;9.98;5.22;;;;;;;16.01;62.13;101431.94;5038488;28;20086;-81
2023/04/10 10:53:36;;;;;;;8.30;4.97;;;;;;;16.14;60.26;101423.75;5037443;28;20041;-74
2023/04/10 10:56:21;;;;;;;10.38;4.80;;;;;;;16.08;59.73;101411.16;5036870;28;20013;-78
2023/04/10 10:58:51;;;;;;;10.90;5.70;;;;;;;15.95;59.58;101398.63;5037232;28;20025;-78
2023/04/10 11:01:17;;;;;;;7.78;4.68;;;;;;;16.04;59.67;101396.53;5038058;28;20541;-78
2023/04/10 11:03:44;;;;;;;6.75;4.55;;;;;;;16.17;57.29;101382.13;5037977;28;20048;-78
2023/04/10 11:06:20;;;;;;;8.38;4.60;;;;;;;16.34;60.53;101391.28;5036945;28;20037;-78
2023/04/10 11:08:51;;;;;;;8.70;4.57;;;;;;;16.39;58.19;101390.63;5037863;28;20051;-78
2023/04/10 11:11:22;;;;;;;8.15;4.63;;;;;;;16.58;57.49;101397.69;5036946;28;20098;-77
2023/04/10 11:13:56;;;;;;;5.68;3.78;;;;;;;16.69;56.67;101381.81;5037583;28;20049;-78
2023/04/10 11:16:23;;;;;;;5.78;3.90;;;;;;;16.69;55.73;101382.66;5035664;28;20039;-78
2023/04/10 11:18:49;;;;;;;6.85;4.38;;;;;;;16.82;54.96;101377.16;5037271;28;20070;-78
2023/04/10 11:21:19;;;;;;;7.00;4.30;;;;;;;16.88;55.64;101386.19;5036876;28;20029;-78
2023/04/10 11:23:57;;;;;;;7.75;4.00;;;;;;;17.02;56.95;101378.75;5037312;28;20029;-77